createdAt,value
2023-03-28T00:01:01.654Z,97455.25
2023-03-28T00:03:28.247Z,97438.09
2023-03-28T00:05:58.359Z,97446.28
2023-03-28T00:08:25.246Z,97467.81
2023-03-28T00:10:51.784Z,97459.94
2023-03-28T00:13:18.367Z,97459.31
2023-03-28T00:15:44.830Z,97470.72
2023-03-28T00:18:11.303Z,97474.38
2023-03-28T00:20:41.345Z,97474.38
2023-03-28T00:23:07.856Z,97469.03
2023-03-28T00:25:34.881Z,97474.59
2023-03-28T00:28:01.481Z,97493.38
2023-03-28T00:30:27.997Z,97470.41
2023-03-28T00:32:54.481Z,97499.28
2023-03-28T00:35:20.972Z,97479.75
2023-03-28T00:37:47.531Z,97483.41
2023-03-28T00:40:14.005Z,97494.25
2023-03-28T00:42:43.460Z,97501.78
2023-03-28T00:45:10.562Z,97487.97
2023-03-28T00:47:48.747Z,97483.44
2023-03-28T00:50:15.213Z,97488.16
2023-03-28T00:52:45.924Z,97502.44
2023-03-28T00:55:14.522Z,97491.44
2023-03-28T00:57:40.916Z,97502.22
2023-03-28T01:00:08.452Z,97456.78
2023-03-28T01:02:35.387Z,97469.84
2023-03-28T01:05:01.953Z,97478.56
2023-03-28T01:07:28.954Z,97462.69
2023-03-28T01:09:55.529Z,97496.75
2023-03-28T01:12:22.052Z,97457.25
2023-03-28T01:14:48.626Z,97490.84
2023-03-28T01:17:15.224Z,97496.38
2023-03-28T01:19:54.077Z,97503.25
2023-03-28T01:22:40.451Z,97504.31
2023-03-28T01:25:15.432Z,97509.19
2023-03-28T01:27:44.325Z,97497.38
2023-03-28T01:30:19.940Z,97520.75
2023-03-28T01:33:05.345Z,97519.50
2023-03-28T01:35:31.809Z,97521.50
2023-03-28T01:38:04.549Z,97515.00
2023-03-28T01:40:39.622Z,97520.28
2023-03-28T01:43:15.331Z,97485.66
2023-03-28T01:45:46.023Z,97532.59
2023-03-28T01:48:16.648Z,97524.44
2023-03-28T01:50:44.700Z,97534.63
2023-03-28T01:53:11.072Z,97533.22
2023-03-28T01:55:41.899Z,97540.75
2023-03-28T01:58:09.329Z,97547.50
2023-03-28T02:00:42.098Z,97546.28
2023-03-28T02:03:14.424Z,97544.06
2023-03-28T02:05:40.969Z,97563.66
2023-03-28T02:08:07.772Z,97547.94
2023-03-28T02:10:34.241Z,97539.78
2023-03-28T02:13:02.270Z,97552.22
2023-03-28T02:15:28.705Z,97544.28
2023-03-28T02:17:56.726Z,97578.47
2023-03-28T02:20:23.244Z,97539.38
2023-03-28T02:22:57.491Z,97546.47
2023-03-28T02:25:23.942Z,97537.13
2023-03-28T02:27:51.212Z,97542.19
2023-03-28T02:30:17.668Z,97563.63
2023-03-28T02:32:44.239Z,97550.78
2023-03-28T02:35:10.818Z,97557.13
2023-03-28T02:37:37.234Z,97552.81
2023-03-28T02:40:06.424Z,97557.75
2023-03-28T02:42:47.830Z,97561.81
2023-03-28T02:45:14.316Z,97533.50
2023-03-28T02:47:40.722Z,97556.34
2023-03-28T02:50:10.439Z,97546.75
2023-03-28T02:52:39.814Z,97589.13
2023-03-28T02:55:06.228Z,97573.69
2023-03-28T02:57:39.865Z,97550.25
2023-03-28T03:00:13.888Z,97576.91
2023-03-28T03:02:40.505Z,97553.31
2023-03-28T03:05:07.525Z,97564.72
2023-03-28T03:07:34.048Z,97554.53
2023-03-28T03:10:00.561Z,97565.34
2023-03-28T03:12:27.630Z,97564.94
2023-03-28T03:14:54.046Z,97588.16
2023-03-28T03:17:20.458Z,97581.63
2023-03-28T03:19:46.900Z,97582.66
2023-03-28T03:22:20.900Z,97570.66
2023-03-28T03:24:48.068Z,97592.22
2023-03-28T03:27:14.443Z,97565.56
2023-03-28T03:29:40.871Z,97591.19
2023-03-28T03:32:07.321Z,97568.41
2023-03-28T03:34:33.990Z,97576.56
2023-03-28T03:37:00.432Z,97576.16
2023-03-28T03:39:26.981Z,97594.88
2023-03-28T03:41:53.497Z,97592.84
2023-03-28T03:44:20.040Z,97586.31
2023-03-28T03:46:46.610Z,97587.97
2023-03-28T03:49:13.143Z,97590.38
2023-03-28T03:51:39.639Z,97583.88
2023-03-28T03:54:06.105Z,97576.34
2023-03-28T03:56:32.916Z,97587.56
2023-03-28T03:58:59.440Z,97607.50
2023-03-28T04:01:25.910Z,97581.44
2023-03-28T04:03:52.461Z,97586.13
2023-03-28T04:06:18.971Z,97616.28
2023-03-28T04:08:45.704Z,97604.25
2023-03-28T04:11:12.170Z,97618.50
2023-03-28T04:13:38.575Z,97589.00
2023-03-28T04:16:05.276Z,97635.22
2023-03-28T04:18:31.731Z,97603.03
2023-03-28T04:20:58.652Z,97599.75
2023-03-28T04:23:25.117Z,97649.47
2023-03-28T04:25:55.764Z,97633.97
2023-03-28T04:28:22.228Z,97623.41
2023-03-28T04:30:48.623Z,97630.91
2023-03-28T04:33:15.125Z,97623.59
2023-03-28T04:35:41.660Z,97624.81
2023-03-28T04:38:08.417Z,97624.41
2023-03-28T04:40:34.953Z,97632.34
2023-03-28T04:43:01.432Z,97638.63
2023-03-28T04:45:27.963Z,97643.31
2023-03-28T04:47:54.472Z,97655.13
2023-03-28T04:50:20.998Z,97647.19
2023-03-28T04:52:47.500Z,97646.56
2023-03-28T04:55:16.548Z,97651.06
2023-03-28T04:57:43.015Z,97649.22
2023-03-28T05:00:09.812Z,97667.75
2023-03-28T05:02:36.445Z,97645.78
2023-03-28T05:05:02.929Z,97636.19
2023-03-28T05:07:29.340Z,97676.31
2023-03-28T05:09:55.748Z,97659.59
2023-03-28T05:12:22.232Z,97659.59
2023-03-28T05:14:48.844Z,97654.28
2023-03-28T05:17:15.302Z,97658.78
2023-03-28T05:19:41.740Z,97674.69
2023-03-28T05:22:08.262Z,97674.69
2023-03-28T05:24:36.759Z,97675.50
2023-03-28T05:27:03.557Z,97678.34
2023-03-28T05:29:30.032Z,97699.94
2023-03-28T05:31:56.781Z,97673.03
2023-03-28T05:34:23.958Z,97687.69
2023-03-28T05:36:50.408Z,97695.03
2023-03-28T05:39:16.842Z,97703.59
2023-03-28T05:41:43.337Z,97697.06
2023-03-28T05:44:09.815Z,97698.28
2023-03-28T05:46:36.219Z,97699.31
2023-03-28T05:49:02.614Z,97692.75
2023-03-28T05:51:29.049Z,97716.81
2023-03-28T05:53:55.523Z,97707.19
2023-03-28T05:56:22.790Z,97704.34
2023-03-28T05:58:49.270Z,97718.59
2023-03-28T06:01:15.759Z,97695.88
2023-03-28T06:03:42.241Z,97710.19
2023-03-28T06:06:08.791Z,97725.06
2023-03-28T06:08:35.283Z,97710.13
2023-03-28T06:11:01.960Z,97712.59
2023-03-28T06:13:28.615Z,97716.41
2023-03-28T06:15:55.102Z,97738.72
2023-03-28T06:18:21.459Z,97729.97
2023-03-28T06:20:47.920Z,97725.53
2023-03-28T06:23:14.428Z,97737.38
2023-03-28T06:25:40.863Z,97734.09
2023-03-28T06:28:07.279Z,97767.59
2023-03-28T06:30:33.716Z,97749.00
2023-03-28T06:33:00.244Z,97755.31
2023-03-28T06:35:26.724Z,97741.00
2023-03-28T06:37:53.321Z,97762.06
2023-03-28T06:40:19.819Z,97745.97
2023-03-28T06:42:46.353Z,97736.19
2023-03-28T06:45:13.044Z,97766.13
2023-03-28T06:47:39.830Z,97755.72
2023-03-28T06:50:06.585Z,97766.19
2023-03-28T06:52:33.240Z,97782.47
2023-03-28T06:54:59.650Z,97773.28
2023-03-28T06:57:26.100Z,97782.97
2023-03-28T06:59:52.803Z,97781.47
2023-03-28T07:02:19.229Z,97779.69
2023-03-28T07:04:45.703Z,97762.19
2023-03-28T07:07:12.327Z,97828.56
2023-03-28T07:09:38.755Z,97804.13
2023-03-28T07:12:05.301Z,97817.41
2023-03-28T07:14:31.759Z,97814.06
2023-03-28T07:16:58.578Z,97818.19
2023-03-28T07:19:25.120Z,97828.84
2023-03-28T07:21:51.621Z,97809.13
2023-03-28T07:24:18.125Z,97852.88
2023-03-28T07:26:44.592Z,97809.50
2023-03-28T07:29:11.118Z,97837.94
2023-03-28T07:31:37.641Z,97836.16
2023-03-28T07:34:04.229Z,97826.91
2023-03-28T07:36:30.890Z,97837.19
2023-03-28T07:38:57.319Z,97837.47
2023-03-28T07:41:23.808Z,97841.91
2023-03-28T07:43:50.238Z,97835.09
2023-03-28T07:46:16.772Z,97857.66
2023-03-28T07:48:43.636Z,97887.69
2023-03-28T07:51:10.366Z,97858.03
2023-03-28T07:53:36.857Z,97879.47
2023-03-28T07:56:03.677Z,97849.03
2023-03-28T07:58:30.164Z,97877.19
2023-03-28T08:00:56.644Z,97853.97
2023-03-28T08:03:24.717Z,97872.69
2023-03-28T08:05:51.557Z,97872.19
2023-03-28T08:08:18.624Z,97900.75
2023-03-28T08:10:45.795Z,97874.25
2023-03-28T08:13:12.347Z,97879.19
2023-03-28T08:15:38.929Z,97864.28
2023-03-28T08:18:05.346Z,97884.81
2023-03-28T08:20:32.589Z,97883.13
2023-03-28T08:22:59.054Z,97890.97
2023-03-28T08:25:25.544Z,97899.00
2023-03-28T08:27:52.443Z,97892.22
2023-03-28T08:30:18.956Z,97906.97
2023-03-28T08:32:48.240Z,97911.84
2023-03-28T08:35:15.407Z,97897.41
2023-03-28T08:37:41.820Z,97903.78
2023-03-28T08:40:10.006Z,97890.81
2023-03-28T08:42:42.662Z,97904.91
2023-03-28T08:45:11.781Z,97916.31
2023-03-28T08:47:57.322Z,97885.13
2023-03-28T08:50:24.959Z,97892.81
2023-03-28T08:52:51.522Z,97922.00
2023-03-28T08:55:22.961Z,97911.19
2023-03-28T08:57:50.808Z,97867.28
2023-03-28T09:00:27.513Z,97904.31
2023-03-28T09:02:54.052Z,97916.06
2023-03-28T09:05:35.658Z,97900.47
2023-03-28T09:08:06.569Z,97900.59
2023-03-28T09:10:39.086Z,97894.88
2023-03-28T09:13:05.509Z,97907.00
2023-03-28T09:15:37.810Z,97938.31
2023-03-28T09:18:11.977Z,97897.09
2023-03-28T09:20:39.571Z,97913.88
2023-03-28T09:23:32.223Z,97896.53
2023-03-28T09:26:01.849Z,97887.44
2023-03-28T09:28:31.619Z,97888.59
2023-03-28T09:30:58.867Z,97939.44
2023-03-28T09:33:30.245Z,97911.44
2023-03-28T09:35:56.796Z,97893.66
2023-03-28T09:38:25.799Z,97900.03
2023-03-28T09:40:52.456Z,97928.34
2023-03-28T09:43:25.705Z,97923.94
2023-03-28T09:46:05.113Z,97912.94
2023-03-28T09:48:32.859Z,97886.81
2023-03-28T09:50:59.823Z,97882.72
2023-03-28T09:53:27.244Z,97915.00
2023-03-28T09:56:16.824Z,97883.44
2023-03-28T09:58:47.131Z,97902.84
2023-03-28T10:01:43.209Z,97904.00
2023-03-28T10:04:15.945Z,97914.13
2023-03-28T10:06:42.648Z,97908.78
2023-03-28T10:09:22.216Z,97898.13
2023-03-28T10:11:55.490Z,97903.47
2023-03-28T10:14:35.241Z,97907.59
2023-03-28T10:17:05.938Z,97878.97
2023-03-28T10:19:33.378Z,97906.75
2023-03-28T10:22:04.366Z,97887.09
2023-03-28T10:24:30.878Z,97907.81
2023-03-28T10:26:58.018Z,97885.72
2023-03-28T10:29:24.415Z,97922.84
2023-03-28T10:31:50.864Z,97920.28
2023-03-28T10:34:24.633Z,97908.69
2023-03-28T10:36:51.064Z,97924.44
2023-03-28T10:39:21.684Z,97918.56
2023-03-28T10:41:54.156Z,97901.47
2023-03-28T10:44:35.188Z,97919.09
2023-03-28T10:47:08.944Z,97910.31
2023-03-28T10:49:48.633Z,97897.47
2023-03-28T10:52:33.978Z,97897.00
2023-03-28T10:55:09.376Z,97913.94
2023-03-28T10:57:54.596Z,97882.59
2023-03-28T11:00:24.020Z,97902.63
2023-03-28T11:02:56.732Z,97893.22
2023-03-28T11:05:34.294Z,97900.34
2023-03-28T11:08:00.841Z,97916.41
2023-03-28T11:10:43.138Z,97920.91
2023-03-28T11:13:09.673Z,97909.69
2023-03-28T11:15:38.257Z,97907.91
2023-03-28T11:18:23.471Z,97892.28
2023-03-28T11:20:53.493Z,97899.16
2023-03-28T11:23:20.140Z,97909.44
2023-03-28T11:25:56.492Z,97900.22
2023-03-28T11:28:28.732Z,97896.69
2023-03-28T11:30:55.916Z,97920.00
2023-03-28T11:33:22.314Z,97900.72
2023-03-28T11:35:53.576Z,97924.47
2023-03-28T11:38:40.313Z,97904.66
2023-03-28T11:41:17.341Z,97882.16
2023-03-28T11:43:48.450Z,97894.38
2023-03-28T11:46:16.480Z,97905.16
2023-03-28T11:49:03.255Z,97885.03
2023-03-28T11:51:34.616Z,97894.53
2023-03-28T11:54:07.082Z,97879.75
2023-03-28T11:56:42.812Z,97887.66
2023-03-28T11:59:11.520Z,97865.63
2023-03-28T12:01:39.373Z,97895.63
2023-03-28T12:04:17.895Z,97908.19
2023-03-28T12:06:59.474Z,97895.59
2023-03-28T12:09:38.276Z,97884.16
2023-03-28T12:12:08.657Z,97882.97
2023-03-28T12:14:36.998Z,97880.78
2023-03-28T12:17:04.659Z,97872.88
2023-03-28T12:19:32.192Z,97877.59
2023-03-28T12:22:00.269Z,97844.78
2023-03-28T12:24:43.162Z,97835.41
2023-03-28T12:27:21.774Z,97860.91
2023-03-28T12:29:51.030Z,97857.25
2023-03-28T12:32:23.703Z,97868.53
2023-03-28T12:35:04.258Z,97841.34
2023-03-28T12:37:42.730Z,97868.63
2023-03-28T12:40:12.200Z,97851.22
2023-03-28T12:42:39.873Z,97846.25
2023-03-28T12:45:06.718Z,97829.00
2023-03-28T12:47:34.541Z,97840.03
2023-03-28T12:50:05.669Z,97852.88
2023-03-28T12:52:32.466Z,97838.09
2023-03-28T12:55:01.333Z,97838.59
2023-03-28T12:57:40.608Z,97850.88
2023-03-28T13:00:13.723Z,97841.38
2023-03-28T13:02:52.088Z,97833.56
2023-03-28T13:05:18.631Z,97863.88
2023-03-28T13:07:45.006Z,97841.41
2023-03-28T13:10:11.370Z,97838.69
2023-03-28T13:12:46.407Z,97838.09
2023-03-28T13:15:12.841Z,97828.81
2023-03-28T13:17:42.058Z,97853.16
2023-03-28T13:20:14.572Z,97854.50
2023-03-28T13:22:50.510Z,97842.28
2023-03-28T13:25:19.922Z,97842.69
2023-03-28T13:27:49.719Z,97858.56
2023-03-28T13:30:16.338Z,97863.94
2023-03-28T13:32:46.876Z,97848.28
2023-03-28T13:35:33.317Z,97825.56
2023-03-28T13:38:15.135Z,97835.00
2023-03-28T13:40:44.313Z,97845.19
2023-03-28T13:43:25.957Z,97851.19
2023-03-28T13:45:53.048Z,97828.69
2023-03-28T13:48:19.629Z,97838.88
2023-03-28T13:50:46.129Z,97819.69
2023-03-28T13:53:12.552Z,97832.91
2023-03-28T13:55:38.950Z,97815.69
2023-03-28T13:58:05.508Z,97822.66
2023-03-28T14:00:32.294Z,97809.72
2023-03-28T14:03:02.422Z,97812.84
2023-03-28T14:05:29.716Z,97828.91
2023-03-28T14:08:01.355Z,97816.47
2023-03-28T14:10:31.891Z,97820.16
2023-03-28T14:12:59.879Z,97811.88
2023-03-28T14:15:26.988Z,97821.69
2023-03-28T14:17:53.819Z,97801.13
2023-03-28T14:20:20.332Z,97771.41
2023-03-28T14:22:57.461Z,97780.66
2023-03-28T14:25:27.246Z,97806.97
2023-03-28T14:27:54.085Z,97796.47
2023-03-28T14:30:21.678Z,97800.06
2023-03-28T14:32:57.562Z,97803.25
2023-03-28T14:35:25.166Z,97796.31
2023-03-28T14:37:52.461Z,97791.81
2023-03-28T14:40:24.874Z,97795.78
2023-03-28T14:42:54.227Z,97788.72
2023-03-28T14:45:20.676Z,97789.44
2023-03-28T14:47:47.124Z,97762.09
2023-03-28T14:50:13.937Z,97753.97
2023-03-28T14:52:40.591Z,97782.00
2023-03-28T14:55:07.964Z,97767.75
2023-03-28T14:57:34.407Z,97773.47
2023-03-28T15:00:00.896Z,97770.44
2023-03-28T15:02:32.827Z,97767.47
2023-03-28T15:05:03.498Z,97797.63
2023-03-28T15:07:32.372Z,97747.84
2023-03-28T15:10:08.281Z,97762.66
2023-03-28T15:12:39.073Z,97758.34
2023-03-28T15:15:05.717Z,97791.09
2023-03-28T15:17:32.459Z,97782.16
2023-03-28T15:19:58.990Z,97768.13
2023-03-28T15:22:28.648Z,97763.50
2023-03-28T15:24:55.377Z,97753.69
2023-03-28T15:27:28.931Z,97756.38
2023-03-28T15:29:55.476Z,97772.09
2023-03-28T15:32:22.027Z,97746.19
2023-03-28T15:35:11.466Z,97746.28
2023-03-28T15:37:42.743Z,97754.31
2023-03-28T15:40:18.363Z,97754.97
2023-03-28T15:42:48.703Z,97758.22
2023-03-28T15:45:21.407Z,97752.66
2023-03-28T15:47:48.871Z,97739.84
2023-03-28T15:50:26.141Z,97750.19
2023-03-28T15:52:56.581Z,97757.59
2023-03-28T15:55:23.050Z,97736.88
2023-03-28T15:57:49.533Z,97749.50
2023-03-28T16:00:34.735Z,97749.38
2023-03-28T16:03:17.649Z,97760.31
2023-03-28T16:05:51.066Z,97744.47
2023-03-28T16:08:37.875Z,97745.97
2023-03-28T16:11:06.320Z,97751.13
2023-03-28T16:13:32.986Z,97742.88
2023-03-28T16:15:59.876Z,97767.88
2023-03-28T16:18:26.535Z,97735.59
2023-03-28T16:20:52.919Z,97727.56
2023-03-28T16:23:19.425Z,97756.59
2023-03-28T16:25:45.833Z,97726.91
2023-03-28T16:28:14.343Z,97742.31
2023-03-28T16:30:40.852Z,97747.19
2023-03-28T16:33:07.280Z,97742.78
2023-03-28T16:35:33.738Z,97730.84
2023-03-28T16:38:00.481Z,97748.69
2023-03-28T16:40:26.946Z,97769.13
2023-03-28T16:42:53.514Z,97760.72
2023-03-28T16:45:20.067Z,97747.13
2023-03-28T16:47:46.920Z,97735.72
2023-03-28T16:50:13.399Z,97746.22
2023-03-28T16:52:39.942Z,97742.41
2023-03-28T16:55:07.126Z,97741.69
2023-03-28T16:57:33.566Z,97749.00
2023-03-28T17:00:00.043Z,97754.25
2023-03-28T17:02:26.506Z,97746.03
2023-03-28T17:04:53.087Z,97736.44
2023-03-28T17:07:19.553Z,97730.56
2023-03-28T17:09:45.967Z,97734.84
2023-03-28T17:12:12.359Z,97723.91
2023-03-28T17:14:38.937Z,97733.09
2023-03-28T17:17:05.411Z,97728.38
2023-03-28T17:19:31.947Z,97715.66
2023-03-28T17:21:58.505Z,97756.16
2023-03-28T17:24:24.974Z,97748.06
2023-03-28T17:26:51.458Z,97718.25
2023-03-28T17:29:17.960Z,97699.94
2023-03-28T17:31:44.486Z,97718.03
2023-03-28T17:34:11.147Z,97719.66
2023-03-28T17:36:37.718Z,97721.75
2023-03-28T17:39:04.259Z,97709.94
2023-03-28T17:41:32.556Z,97723.53
2023-03-28T17:43:58.959Z,97698.78
2023-03-28T17:46:25.408Z,97723.50
2023-03-28T17:48:51.972Z,97710.50
2023-03-28T17:51:18.696Z,97705.13
2023-03-28T17:53:45.176Z,97699.53
2023-03-28T17:56:11.546Z,97712.41
2023-03-28T17:58:38.192Z,97710.00
2023-03-28T18:01:07.810Z,97721.81
2023-03-28T18:03:34.414Z,97695.63
2023-03-28T18:06:01.274Z,97716.59
2023-03-28T18:08:28.096Z,97717.94
2023-03-28T18:10:54.692Z,97723.56
2023-03-28T18:13:21.255Z,97715.75
2023-03-28T18:15:47.761Z,97714.41
2023-03-28T18:18:14.270Z,97711.69
2023-03-28T18:20:43.765Z,97724.91
2023-03-28T18:23:10.390Z,97720.03
2023-03-28T18:25:37.119Z,97700.69
2023-03-28T18:28:06.825Z,97715.84
2023-03-28T18:30:33.449Z,97695.50
2023-03-28T18:32:59.985Z,97690.53
2023-03-28T18:35:26.789Z,97706.94
2023-03-28T18:37:53.342Z,97712.81
2023-03-28T18:40:19.799Z,97711.88
2023-03-28T18:42:46.283Z,97710.66
2023-03-28T18:45:12.726Z,97698.50
2023-03-28T18:47:39.586Z,97696.47
2023-03-28T18:50:06.442Z,97696.84
2023-03-28T18:52:32.950Z,97715.25
2023-03-28T18:54:59.354Z,97677.41
2023-03-28T18:57:26.145Z,97683.53
2023-03-28T18:59:52.684Z,97684.28
2023-03-28T19:02:19.682Z,97681.91
2023-03-28T19:04:46.584Z,97665.63
2023-03-28T19:07:16.089Z,97654.22
2023-03-28T19:09:42.490Z,97679.16
2023-03-28T19:12:08.982Z,97677.69
2023-03-28T19:14:35.428Z,97659.53
2023-03-28T19:17:01.823Z,97681.41
2023-03-28T19:19:28.442Z,97653.69
2023-03-28T19:21:54.890Z,97657.59
2023-03-28T19:24:21.418Z,97646.78
2023-03-28T19:26:48.301Z,97670.78
2023-03-28T19:29:15.050Z,97647.56
2023-03-28T19:31:41.922Z,97662.47
2023-03-28T19:34:08.902Z,97645.38
2023-03-28T19:36:35.389Z,97646.41
2023-03-28T19:39:01.838Z,97657.72
2023-03-28T19:41:28.520Z,97645.66
2023-03-28T19:43:54.937Z,97664.06
2023-03-28T19:46:24.347Z,97664.47
2023-03-28T19:48:54.667Z,97656.50
2023-03-28T19:51:21.121Z,97663.44
2023-03-28T19:53:47.667Z,97658.78
2023-03-28T19:56:14.177Z,97644.34
2023-03-28T19:58:40.630Z,97647.13
2023-03-28T20:01:07.122Z,97635.13
2023-03-28T20:03:33.690Z,97649.19
2023-03-28T20:06:04.135Z,97642.81
2023-03-28T20:08:30.516Z,97610.41
2023-03-28T20:10:57.012Z,97632.28
2023-03-28T20:13:23.380Z,97624.53
2023-03-28T20:15:49.844Z,97641.03
2023-03-28T20:18:17.404Z,97644.50
2023-03-28T20:20:43.856Z,97625.34
2023-03-28T20:23:10.259Z,97627.19
2023-03-28T20:25:36.675Z,97605.00
2023-03-28T20:28:03.127Z,97628.41
2023-03-28T20:30:30.108Z,97595.44
2023-03-28T20:32:56.728Z,97615.44
2023-03-28T20:35:23.228Z,97621.13
2023-03-28T20:37:49.713Z,97594.63
2023-03-28T20:40:16.330Z,97582.59
2023-03-28T20:42:42.803Z,97628.03
2023-03-28T20:45:09.720Z,97593.38
2023-03-28T20:47:36.294Z,97601.72
2023-03-28T20:50:02.756Z,97615.34
2023-03-28T20:52:29.185Z,97620.22
2023-03-28T20:54:55.788Z,97601.13
2023-03-28T20:57:22.258Z,97614.78
2023-03-28T20:59:48.747Z,97598.03
2023-03-28T21:02:15.242Z,97601.25
2023-03-28T21:04:41.744Z,97614.91
2023-03-28T21:07:08.217Z,97618.19
2023-03-28T21:09:34.741Z,97605.91
2023-03-28T21:12:01.117Z,97600.03
2023-03-28T21:14:27.547Z,97603.66
2023-03-28T21:16:54.272Z,97607.91
2023-03-28T21:19:21.133Z,97606.13
2023-03-28T21:21:47.530Z,97611.34
2023-03-28T21:24:14.291Z,97575.53
2023-03-28T21:26:40.756Z,97597.13
2023-03-28T21:29:07.582Z,97565.72
2023-03-28T21:31:34.195Z,97559.19
2023-03-28T21:34:00.711Z,97579.16
2023-03-28T21:36:27.252Z,97565.72
2023-03-28T21:38:53.795Z,97580.59
2023-03-28T21:41:20.309Z,97570.59
2023-03-28T21:43:46.714Z,97540.84
2023-03-28T21:46:13.250Z,97551.03
2023-03-28T21:48:39.659Z,97551.47
2023-03-28T21:51:06.409Z,97530.22
2023-03-28T21:53:33.996Z,97541.31
2023-03-28T21:56:00.472Z,97537.34
2023-03-28T21:58:27.590Z,97510.22
2023-03-28T22:00:54.183Z,97530.22
2023-03-28T22:03:20.885Z,97532.53
2023-03-28T22:05:49.690Z,97534.94
2023-03-28T22:08:16.224Z,97520.81
2023-03-28T22:10:49.705Z,97522.63
2023-03-28T22:13:16.269Z,97516.31
2023-03-28T22:15:42.972Z,97518.75
2023-03-28T22:18:09.578Z,97517.16
2023-03-28T22:20:36.458Z,97527.69
2023-03-28T22:23:03.115Z,97509.31
2023-03-28T22:25:29.804Z,97508.94
2023-03-28T22:27:56.595Z,97508.66
2023-03-28T22:30:23.022Z,97487.88
2023-03-28T22:32:49.641Z,97508.84
2023-03-28T22:35:16.278Z,97505.53
2023-03-28T22:37:42.705Z,97494.72
2023-03-28T22:40:09.487Z,97509.13
2023-03-28T22:42:35.916Z,97494.63
2023-03-28T22:45:02.281Z,97487.69
2023-03-28T22:47:28.738Z,97499.88
2023-03-28T22:49:55.234Z,97473.28
2023-03-28T22:52:21.713Z,97470.78
2023-03-28T22:54:49.451Z,97488.06
2023-03-28T22:57:16.025Z,97481.06
2023-03-28T22:59:42.646Z,97497.44
2023-03-28T23:02:09.171Z,97458.66
2023-03-28T23:04:35.923Z,97472.63
2023-03-28T23:07:02.475Z,97490.16
2023-03-28T23:09:28.897Z,97459.22
2023-03-28T23:11:55.358Z,97460.22
2023-03-28T23:14:21.834Z,97466.09
2023-03-28T23:16:48.272Z,97465.22
2023-03-28T23:19:14.767Z,97484.59
2023-03-28T23:21:41.276Z,97462.16
2023-03-28T23:24:07.911Z,97458.88
2023-03-28T23:26:34.502Z,97483.63
2023-03-28T23:29:00.899Z,97472.19
2023-03-28T23:31:27.460Z,97482.81
2023-03-28T23:33:54.093Z,97445.81
2023-03-28T23:36:20.562Z,97485.03
2023-03-28T23:38:47.475Z,97495.16
2023-03-28T23:41:14.031Z,97477.50
2023-03-28T23:43:40.457Z,97486.59
2023-03-28T23:46:07.231Z,97476.66
2023-03-28T23:48:33.893Z,97483.25
2023-03-28T23:51:00.476Z,97458.03
2023-03-28T23:53:27.461Z,97514.47
2023-03-28T23:55:54.014Z,97491.06
2023-03-28T23:58:21.276Z,97487.81
